createdAt,value
2018-06-19T00:01:40.008Z,15.14
2018-06-19T00:04:07.674Z,15.25
2018-06-19T00:06:35.393Z,15.32
2018-06-19T00:09:03.854Z,15.16
2018-06-19T00:11:31.551Z,15.13
2018-06-19T00:13:59.237Z,15.02
2018-06-19T00:16:26.938Z,15.14
2018-06-19T00:18:55.718Z,15.09
2018-06-19T00:21:26.531Z,15.16
2018-06-19T00:23:54.227Z,15.03
2018-06-19T00:26:21.931Z,15.01
2018-06-19T00:28:49.633Z,15.03
2018-06-19T00:31:17.341Z,15.04
2018-06-19T00:33:44.994Z,15.01
2018-06-19T00:36:12.681Z,14.99
2018-06-19T00:38:40.355Z,14.94
2018-06-19T00:41:08.002Z,14.82
2018-06-19T00:43:35.667Z,14.76
2018-06-19T00:46:03.486Z,14.70
2018-06-19T00:48:31.211Z,14.70
2018-06-19T00:50:58.959Z,14.82
2018-06-19T00:53:26.750Z,14.78
2018-06-19T00:55:58.927Z,14.75
2018-06-19T00:58:26.550Z,14.76
2018-06-19T01:00:54.219Z,14.71
2018-06-19T01:03:21.905Z,14.76
2018-06-19T01:05:49.573Z,14.73
2018-06-19T01:08:17.291Z,14.73
2018-06-19T01:10:44.975Z,14.71
2018-06-19T01:13:12.686Z,14.72
2018-06-19T01:15:40.387Z,14.71
2018-06-19T01:18:08.082Z,14.69
2018-06-19T01:20:35.757Z,14.67
2018-06-19T01:23:03.456Z,14.63
2018-06-19T01:25:31.127Z,14.62
2018-06-19T01:27:58.796Z,14.67
2018-06-19T01:30:26.460Z,14.68
2018-06-19T01:32:54.150Z,14.64
2018-06-19T01:35:21.851Z,14.58
2018-06-19T01:37:49.539Z,14.60
2018-06-19T01:40:17.218Z,14.55
2018-06-19T01:42:44.902Z,14.56
2018-06-19T01:45:12.560Z,14.52
2018-06-19T01:47:40.238Z,14.51
2018-06-19T01:50:07.909Z,14.48
2018-06-19T01:52:35.600Z,14.51
2018-06-19T01:55:03.247Z,14.52
2018-06-19T01:57:30.944Z,14.41
2018-06-19T01:59:58.611Z,14.52
2018-06-19T02:02:26.283Z,14.69
2018-06-19T02:04:53.929Z,14.70
2018-06-19T02:07:21.641Z,14.52
2018-06-19T02:09:49.314Z,14.43
2018-06-19T02:12:17.013Z,14.48
2018-06-19T02:14:44.723Z,14.40
2018-06-19T02:17:12.432Z,14.31
2018-06-19T02:19:40.115Z,14.29
2018-06-19T02:22:07.765Z,14.30
2018-06-19T02:24:35.465Z,14.32
2018-06-19T02:27:03.113Z,14.33
2018-06-19T02:29:30.794Z,14.52
2018-06-19T02:31:58.475Z,14.40
2018-06-19T02:34:26.181Z,14.34
2018-06-19T02:36:53.847Z,14.34
2018-06-19T02:39:21.638Z,14.35
2018-06-19T02:41:49.298Z,14.39
2018-06-19T02:44:16.982Z,14.31
2018-06-19T02:46:44.714Z,14.39
2018-06-19T02:49:12.370Z,14.38
2018-06-19T02:51:40.076Z,14.31
2018-06-19T02:54:07.762Z,14.56
2018-06-19T02:56:35.441Z,14.45
2018-06-19T02:59:03.171Z,14.64
2018-06-19T03:01:30.863Z,14.54
2018-06-19T03:03:58.522Z,14.50
2018-06-19T03:06:26.222Z,14.29
2018-06-19T03:08:53.881Z,14.31
2018-06-19T03:11:21.558Z,14.23
2018-06-19T03:13:49.202Z,14.40
2018-06-19T03:16:17.090Z,14.55
2018-06-19T03:18:44.769Z,14.37
2018-06-19T03:21:12.731Z,14.40
2018-06-19T03:23:40.465Z,14.51
2018-06-19T03:26:08.380Z,14.37
2018-06-19T03:28:36.047Z,14.41
2018-06-19T03:31:03.728Z,14.59
2018-06-19T03:33:31.432Z,14.48
2018-06-19T03:35:59.219Z,14.50
2018-06-19T03:38:26.874Z,14.65
2018-06-19T03:40:54.526Z,14.52
2018-06-19T03:43:22.202Z,14.66
2018-06-19T03:45:49.868Z,14.80
2018-06-19T03:48:17.510Z,14.59
2018-06-19T03:50:45.185Z,14.66
2018-06-19T03:53:12.867Z,14.62
2018-06-19T03:55:40.527Z,14.77
2018-06-19T03:58:08.227Z,14.61
2018-06-19T04:00:35.921Z,14.71
2018-06-19T04:03:03.622Z,14.90
2018-06-19T04:05:31.316Z,14.96
2018-06-19T04:07:58.990Z,14.82
2018-06-19T04:10:26.693Z,14.87
2018-06-19T04:12:54.374Z,14.79
2018-06-19T04:15:22.067Z,14.78
2018-06-19T04:17:49.744Z,14.94
2018-06-19T04:20:17.419Z,14.88
2018-06-19T04:22:45.091Z,15.03
2018-06-19T04:25:12.823Z,15.08
2018-06-19T04:27:40.530Z,15.08
2018-06-19T04:30:08.180Z,15.10
2018-06-19T04:32:36.002Z,15.08
2018-06-19T04:35:03.662Z,15.17
2018-06-19T04:37:31.346Z,15.23
2018-06-19T04:39:59.049Z,15.29
2018-06-19T04:42:26.745Z,15.26
2018-06-19T04:44:54.433Z,15.34
2018-06-19T04:47:22.110Z,15.49
2018-06-19T04:49:49.853Z,15.73
2018-06-19T04:52:17.516Z,16.04
2018-06-19T04:54:45.178Z,16.27
2018-06-19T04:57:12.891Z,16.65
2018-06-19T04:59:40.630Z,16.73
2018-06-19T05:02:08.366Z,16.80
2018-06-19T05:04:36.112Z,16.86
2018-06-19T05:07:03.822Z,16.79
2018-06-19T05:09:31.538Z,16.69
2018-06-19T05:11:59.222Z,16.75
2018-06-19T05:14:27.146Z,16.75
2018-06-19T05:16:54.809Z,16.69
2018-06-19T05:19:22.475Z,16.92
2018-06-19T05:21:50.161Z,17.37
2018-06-19T05:24:17.876Z,17.55
2018-06-19T05:26:45.582Z,17.71
2018-06-19T05:29:13.277Z,18.08
2018-06-19T05:31:40.953Z,18.40
2018-06-19T05:34:08.635Z,18.64
2018-06-19T05:36:36.479Z,19.05
2018-06-19T05:39:07.658Z,19.15
2018-06-19T05:41:36.677Z,19.53
2018-06-19T05:44:04.847Z,19.66
2018-06-19T05:46:32.515Z,19.81
2018-06-19T05:49:00.183Z,20.03
2018-06-19T05:51:27.963Z,20.19
2018-06-19T05:53:55.851Z,20.43
2018-06-19T05:56:23.510Z,20.82
2018-06-19T05:58:51.192Z,21.11
2018-06-19T06:01:18.887Z,20.80
2018-06-19T06:03:46.547Z,20.93
2018-06-19T06:06:14.225Z,21.09
2018-06-19T06:08:41.907Z,21.29
2018-06-19T06:11:09.611Z,21.45
2018-06-19T06:13:37.285Z,21.74
2018-06-19T06:16:04.981Z,21.45
2018-06-19T06:18:32.633Z,21.22
2018-06-19T06:21:00.354Z,21.33
2018-06-19T06:23:28.038Z,21.64
2018-06-19T06:25:55.953Z,21.78
2018-06-19T06:28:23.619Z,22.12
2018-06-19T06:30:51.321Z,22.15
2018-06-19T06:33:19.095Z,22.65
2018-06-19T06:35:46.781Z,22.70
2018-06-19T06:38:14.466Z,22.92
2018-06-19T06:40:42.142Z,23.48
2018-06-19T06:43:09.849Z,24.21
2018-06-19T06:45:37.538Z,24.14
2018-06-19T06:48:05.458Z,23.94
2018-06-19T06:50:33.212Z,23.00
2018-06-19T06:53:00.862Z,22.60
2018-06-19T06:55:28.567Z,22.69
2018-06-19T06:57:56.264Z,22.88
2018-06-19T07:00:23.942Z,23.39
2018-06-19T07:02:51.703Z,23.66
2018-06-19T07:05:19.375Z,23.48
2018-06-19T07:07:47.066Z,23.48
2018-06-19T07:10:14.805Z,24.21
2018-06-19T07:12:42.471Z,24.19
2018-06-19T07:15:10.429Z,23.80
2018-06-19T07:17:38.094Z,24.20
2018-06-19T07:20:05.836Z,24.87
2018-06-19T07:22:33.528Z,24.80
2018-06-19T07:25:01.207Z,25.47
2018-06-19T07:27:28.939Z,25.58
2018-06-19T07:29:56.634Z,26.53
2018-06-19T07:32:24.308Z,27.30
2018-06-19T07:34:51.977Z,27.85
2018-06-19T07:37:19.659Z,27.78
2018-06-19T07:39:47.366Z,27.02
2018-06-19T07:42:15.069Z,27.28
2018-06-19T07:44:42.773Z,28.12
2018-06-19T07:47:10.430Z,28.73
2018-06-19T07:49:38.145Z,29.27
2018-06-19T07:52:05.868Z,29.67
2018-06-19T07:54:33.565Z,29.73
2018-06-19T07:57:01.198Z,30.17
2018-06-19T07:59:28.974Z,29.33
2018-06-19T08:01:56.637Z,29.47
2018-06-19T08:04:24.331Z,29.34
2018-06-19T08:06:52.038Z,29.97
2018-06-19T08:09:19.726Z,30.56
2018-06-19T08:11:47.414Z,30.98
2018-06-19T08:14:15.095Z,31.31
2018-06-19T08:16:42.840Z,31.28
2018-06-19T08:19:10.526Z,30.48
2018-06-19T08:21:38.218Z,29.47
2018-06-19T08:24:05.951Z,28.57
2018-06-19T08:26:33.672Z,27.65
2018-06-19T08:29:01.433Z,26.79
2018-06-19T08:31:29.145Z,26.29
2018-06-19T08:33:56.814Z,25.78
2018-06-19T08:36:24.478Z,25.50
2018-06-19T08:38:52.202Z,25.56
2018-06-19T08:41:19.900Z,25.82
2018-06-19T08:43:47.611Z,26.06
2018-06-19T08:46:15.291Z,26.11
2018-06-19T08:48:44.007Z,25.95
2018-06-19T08:51:12.063Z,26.14
2018-06-19T08:53:39.722Z,26.11
2018-06-19T08:56:07.410Z,27.30
2018-06-19T08:58:35.134Z,28.22
2018-06-19T09:01:02.883Z,28.87
2018-06-19T09:03:30.567Z,30.08
2018-06-19T09:05:58.206Z,30.78
2018-06-19T09:08:25.918Z,31.15
2018-06-19T09:10:53.574Z,30.82
2018-06-19T09:13:21.322Z,32.13
2018-06-19T09:15:49.015Z,31.87
2018-06-19T09:18:16.699Z,32.85
2018-06-19T09:20:44.361Z,33.75
2018-06-19T09:23:12.032Z,32.59
2018-06-19T09:25:39.778Z,32.04
2018-06-19T09:28:07.497Z,31.90
2018-06-19T09:30:35.182Z,32.49
2018-06-19T09:33:02.828Z,32.90
2018-06-19T09:35:30.551Z,33.95
2018-06-19T09:37:58.269Z,34.23
2018-06-19T09:40:25.950Z,34.31
2018-06-19T09:42:53.631Z,35.07
2018-06-19T09:45:21.244Z,35.54
2018-06-19T09:47:48.914Z,35.98
2018-06-19T09:50:16.607Z,35.30
2018-06-19T09:52:44.359Z,35.67
2018-06-19T09:55:12.110Z,36.16
2018-06-19T09:57:39.882Z,35.49
2018-06-19T10:00:07.618Z,34.46
2018-06-19T10:02:35.320Z,33.42
2018-06-19T10:05:03.111Z,33.11
2018-06-19T10:07:30.769Z,32.75
2018-06-19T10:09:58.592Z,32.42
2018-06-19T10:12:26.306Z,32.58
2018-06-19T10:14:54.007Z,33.23
2018-06-19T10:17:21.719Z,34.03
2018-06-19T10:19:49.490Z,34.32
2018-06-19T10:22:17.213Z,33.65
2018-06-19T10:24:44.888Z,33.69
2018-06-19T10:27:12.658Z,34.18
2018-06-19T10:29:40.372Z,34.20
2018-06-19T10:32:08.101Z,34.45
2018-06-19T10:34:35.999Z,33.02
2018-06-19T10:37:03.642Z,32.51
2018-06-19T10:39:31.387Z,31.29
2018-06-19T10:41:59.092Z,31.37
2018-06-19T10:44:26.799Z,32.28
2018-06-19T10:46:54.448Z,32.54
2018-06-19T10:49:22.166Z,32.57
2018-06-19T10:51:49.827Z,32.39
2018-06-19T10:54:17.523Z,32.55
2018-06-19T10:56:45.151Z,33.27
2018-06-19T10:59:12.808Z,34.23
2018-06-19T11:01:40.426Z,33.91
2018-06-19T11:04:08.067Z,33.00
2018-06-19T11:06:35.703Z,32.92
2018-06-19T11:09:05.353Z,32.77
2018-06-19T11:11:32.993Z,31.99
2018-06-19T11:14:00.638Z,32.02
2018-06-19T11:16:28.295Z,31.83
2018-06-19T11:18:55.933Z,31.72
2018-06-19T11:21:23.649Z,31.58
2018-06-19T11:23:51.323Z,31.53
2018-06-19T11:26:19.862Z,31.40
2018-06-19T11:28:47.534Z,31.76
2018-06-19T11:31:15.266Z,31.51
2018-06-19T11:33:42.899Z,31.54
2018-06-19T11:36:10.723Z,31.62
2018-06-19T11:38:38.417Z,31.30
2018-06-19T11:41:06.038Z,31.35
2018-06-19T11:43:33.775Z,30.34
2018-06-19T11:46:01.423Z,30.71
2018-06-19T11:48:29.170Z,30.85
2018-06-19T11:50:56.806Z,31.02
2018-06-19T11:53:24.639Z,30.89
2018-06-19T11:55:52.481Z,30.85
2018-06-19T11:58:20.092Z,30.55
2018-06-19T12:00:47.761Z,30.49
2018-06-19T12:03:15.423Z,30.25
2018-06-19T12:05:43.099Z,30.52
2018-06-19T12:08:10.766Z,30.75
2018-06-19T12:10:38.497Z,30.06
2018-06-19T12:13:06.183Z,30.04
2018-06-19T12:15:33.754Z,30.14
2018-06-19T12:18:01.400Z,30.10
2018-06-19T12:20:29.077Z,29.41
2018-06-19T12:22:56.706Z,29.25
2018-06-19T12:25:24.395Z,28.91
2018-06-19T12:27:52.068Z,28.92
2018-06-19T12:30:19.694Z,29.13
2018-06-19T12:32:47.426Z,28.80
2018-06-19T12:35:15.035Z,28.25
2018-06-19T12:37:42.679Z,27.55
2018-06-19T12:40:10.335Z,27.26
2018-06-19T12:42:37.974Z,27.24
2018-06-19T12:45:05.671Z,27.27
2018-06-19T12:47:33.333Z,27.10
2018-06-19T12:50:34.163Z,27.48
2018-06-19T12:53:07.530Z,27.65
2018-06-19T12:55:40.684Z,27.60
2018-06-19T12:58:08.365Z,27.66
2018-06-19T13:00:35.987Z,27.45
2018-06-19T13:03:09.240Z,27.55
2018-06-19T13:05:42.367Z,27.31
2018-06-19T13:08:10.198Z,27.16
2018-06-19T13:10:37.834Z,27.07
2018-06-19T13:13:22.120Z,27.01
2018-06-19T13:15:50.993Z,27.11
2018-06-19T13:18:24.356Z,27.29
2018-06-19T13:20:52.008Z,27.17
2018-06-19T13:23:19.655Z,26.77
2018-06-19T13:25:47.326Z,26.69
2018-06-19T13:28:14.957Z,26.89
2018-06-19T13:30:48.151Z,26.75
2018-06-19T13:33:15.810Z,26.70
2018-06-19T13:35:43.443Z,26.66
2018-06-19T13:38:11.118Z,26.37
2018-06-19T13:40:53.186Z,26.34
2018-06-19T13:43:26.569Z,26.37
2018-06-19T13:45:54.227Z,26.17
2018-06-19T13:48:21.877Z,25.89
2018-06-19T13:50:49.530Z,26.16
2018-06-19T13:53:17.167Z,26.18
2018-06-19T13:57:53.470Z,26.01
2018-06-19T14:00:21.907Z,25.96
2018-06-19T14:02:49.861Z,26.12
2018-06-19T14:05:18.578Z,26.09
2018-06-19T14:08:50.466Z,26.11
2018-06-19T14:11:23.570Z,26.02
2018-06-19T14:13:51.216Z,25.78
2018-06-19T14:16:18.860Z,25.84
2018-06-19T14:18:46.506Z,25.77
2018-06-19T14:21:14.201Z,25.84
2018-06-19T14:23:41.838Z,25.98
2018-06-19T14:26:09.575Z,26.05
2018-06-19T14:28:37.219Z,26.10
2018-06-19T14:31:04.916Z,25.93
2018-06-19T14:33:33.508Z,25.91
2018-06-19T14:36:01.315Z,25.86
2018-06-19T14:38:28.938Z,25.87
2018-06-19T14:40:56.613Z,25.97
2018-06-19T14:43:24.302Z,26.00
2018-06-19T14:45:51.962Z,26.03
2018-06-19T14:48:19.588Z,26.08
2018-06-19T14:50:47.266Z,26.26
2018-06-19T14:53:14.900Z,26.32
2018-06-19T14:55:42.806Z,26.44
2018-06-19T14:58:10.471Z,26.23
2018-06-19T15:00:38.110Z,26.19
2018-06-19T15:03:05.787Z,26.16
2018-06-19T15:05:33.445Z,25.81
2018-06-19T15:08:01.093Z,25.88
2018-06-19T15:10:28.852Z,25.75
2018-06-19T15:12:56.487Z,25.66
2018-06-19T15:15:24.171Z,25.72
2018-06-19T15:17:51.825Z,25.61
2018-06-19T15:20:19.584Z,25.65
2018-06-19T15:22:47.224Z,25.75
2018-06-19T15:25:14.868Z,25.87
2018-06-19T15:27:42.535Z,25.91
2018-06-19T15:30:10.183Z,25.80
2018-06-19T15:32:37.829Z,25.70
2018-06-19T15:35:05.498Z,25.67
2018-06-19T15:37:33.352Z,25.67
2018-06-19T15:40:01.007Z,25.55
2018-06-19T15:42:28.675Z,25.54
2018-06-19T15:44:56.333Z,25.55
2018-06-19T15:47:23.974Z,25.57
2018-06-19T15:49:51.710Z,25.47
2018-06-19T15:52:19.371Z,25.43
2018-06-19T15:54:47.015Z,25.45
2018-06-19T15:57:14.678Z,25.40
2018-06-19T15:59:42.660Z,25.53
2018-06-19T16:02:10.302Z,25.50
2018-06-19T16:04:37.950Z,25.45
2018-06-19T16:07:05.632Z,25.29
2018-06-19T16:09:33.326Z,25.38
2018-06-19T16:12:00.971Z,25.37
2018-06-19T16:14:28.647Z,25.31
2018-06-19T16:16:56.429Z,25.30
2018-06-19T16:19:24.044Z,25.17
2018-06-19T16:21:51.850Z,25.26
2018-06-19T16:24:19.488Z,25.43
2018-06-19T16:26:47.210Z,25.27
2018-06-19T16:29:14.878Z,25.20
2018-06-19T16:31:42.535Z,25.23
2018-06-19T16:34:10.190Z,25.18
2018-06-19T16:36:37.823Z,25.15
2018-06-19T16:39:06.832Z,25.20
2018-06-19T16:41:34.491Z,25.08
2018-06-19T16:44:02.163Z,25.09
2018-06-19T16:46:29.867Z,25.23
2018-06-19T16:48:57.519Z,25.11
2018-06-19T16:51:25.171Z,25.05
2018-06-19T16:53:52.844Z,25.04
2018-06-19T16:56:20.511Z,25.08
2018-06-19T16:58:48.318Z,25.07
2018-06-19T17:01:15.984Z,25.14
2018-06-19T17:03:43.625Z,25.00
2018-06-19T17:06:11.305Z,25.24
2018-06-19T17:08:38.938Z,25.19
2018-06-19T17:11:06.690Z,25.01
2018-06-19T17:13:34.389Z,24.87
2018-06-19T17:16:02.232Z,24.89
2018-06-19T17:18:29.910Z,24.83
2018-06-19T17:20:57.603Z,24.82
2018-06-19T17:23:25.266Z,24.94
2018-06-19T17:25:52.883Z,24.87
2018-06-19T17:28:20.570Z,24.86
2018-06-19T17:30:48.246Z,24.85
2018-06-19T17:33:15.886Z,24.80
2018-06-19T17:35:43.525Z,24.79
2018-06-19T17:38:11.203Z,24.73
2018-06-19T17:40:38.851Z,24.69
2018-06-19T17:43:06.496Z,24.57
2018-06-19T17:45:34.134Z,24.61
2018-06-19T17:48:01.805Z,24.63
2018-06-19T17:50:29.451Z,24.50
2018-06-19T17:52:57.156Z,24.57
2018-06-19T17:55:24.794Z,24.50
2018-06-19T17:57:52.473Z,24.43
2018-06-19T18:00:20.183Z,24.43
2018-06-19T18:02:47.826Z,24.41
2018-06-19T18:05:15.516Z,24.48
2018-06-19T18:07:43.179Z,24.40
2018-06-19T18:10:10.838Z,24.31
2018-06-19T18:12:38.495Z,24.20
2018-06-19T18:15:06.294Z,24.19
2018-06-19T18:17:33.941Z,24.16
2018-06-19T18:20:01.732Z,24.13
2018-06-19T18:22:29.446Z,24.13
2018-06-19T18:24:57.103Z,24.02
2018-06-19T18:27:24.810Z,24.03
2018-06-19T18:29:52.470Z,23.94
2018-06-19T18:32:20.174Z,23.87
2018-06-19T18:34:47.812Z,23.89
2018-06-19T18:37:16.500Z,23.89
2018-06-19T18:39:44.157Z,23.88
2018-06-19T18:42:12.006Z,23.81
2018-06-19T18:44:39.677Z,23.88
2018-06-19T18:47:07.300Z,23.86
2018-06-19T18:49:34.969Z,23.65
2018-06-19T18:52:02.643Z,23.56
2018-06-19T18:54:30.296Z,23.59
2018-06-19T18:56:57.929Z,23.42
2018-06-19T18:59:25.568Z,23.34
2018-06-19T19:01:53.187Z,23.24
2018-06-19T19:04:20.875Z,23.13
2018-06-19T19:06:48.516Z,23.18
2018-06-19T19:09:16.135Z,23.16
2018-06-19T19:11:43.844Z,23.05
2018-06-19T19:14:11.490Z,23.03
2018-06-19T19:16:44.788Z,22.91
2018-06-19T19:19:15.507Z,22.74
2018-06-19T19:21:43.224Z,22.79
2018-06-19T19:24:10.853Z,22.73
2018-06-19T19:26:44.359Z,22.75
2018-06-19T19:29:17.575Z,22.71
2018-06-19T19:31:45.247Z,22.57
2018-06-19T19:34:12.902Z,22.47
2018-06-19T19:36:46.334Z,22.40
2018-06-19T19:39:19.523Z,22.43
2018-06-19T19:41:47.197Z,22.49
2018-06-19T19:44:14.835Z,22.28
2018-06-19T19:46:48.259Z,22.18
2018-06-19T19:49:15.903Z,22.23
2018-06-19T19:51:43.563Z,22.15
2018-06-19T19:54:11.240Z,22.04
2018-06-19T19:57:44.573Z,21.90
2018-06-19T20:00:16.787Z,21.98
2018-06-19T20:02:44.455Z,21.81
2018-06-19T20:05:12.147Z,21.73
2018-06-19T20:07:40.146Z,22.04
2018-06-19T20:10:07.830Z,21.80
2018-06-19T20:12:35.504Z,21.57
2018-06-19T20:15:03.235Z,21.48
2018-06-19T20:17:30.960Z,21.47
2018-06-19T20:19:58.590Z,21.30
2018-06-19T20:22:26.249Z,21.34
2018-06-19T20:24:53.932Z,21.24
2018-06-19T20:27:21.622Z,21.17
2018-06-19T20:29:49.285Z,21.24
2018-06-19T20:32:16.990Z,21.37
2018-06-19T20:34:44.692Z,21.34
2018-06-19T20:37:12.341Z,21.18
2018-06-19T20:39:40.008Z,21.15
2018-06-19T20:42:07.681Z,21.06
2018-06-19T20:44:35.371Z,20.92
2018-06-19T20:47:03.087Z,20.84
2018-06-19T20:49:30.765Z,20.81
2018-06-19T20:51:58.430Z,20.78
2018-06-19T20:54:26.063Z,20.74
2018-06-19T20:56:53.740Z,20.66
2018-06-19T20:59:21.376Z,20.59
2018-06-19T21:01:49.157Z,20.61
2018-06-19T21:04:16.839Z,20.53
2018-06-19T21:06:44.584Z,20.40
2018-06-19T21:09:13.207Z,20.35
2018-06-19T21:11:40.882Z,20.41
2018-06-19T21:14:08.546Z,20.51
2018-06-19T21:16:36.642Z,20.47
2018-06-19T21:19:04.361Z,20.31
2018-06-19T21:21:32.050Z,20.25
2018-06-19T21:23:59.949Z,20.38
2018-06-19T21:26:27.623Z,20.24
2018-06-19T21:28:55.298Z,20.18
2018-06-19T21:31:23.038Z,20.00
2018-06-19T21:33:50.718Z,19.88
2018-06-19T21:36:18.367Z,19.79
2018-06-19T21:38:46.006Z,20.00
2018-06-19T21:41:13.686Z,20.10
2018-06-19T21:43:41.320Z,19.95
2018-06-19T21:46:08.984Z,19.88
2018-06-19T21:48:36.627Z,19.73
2018-06-19T21:51:04.331Z,19.80
2018-06-19T21:53:31.974Z,19.72
2018-06-19T21:55:59.640Z,19.58
2018-06-19T21:58:27.272Z,19.56
2018-06-19T22:00:54.968Z,19.33
2018-06-19T22:03:22.585Z,19.57
2018-06-19T22:05:50.223Z,19.21
2018-06-19T22:08:17.846Z,19.20
2018-06-19T22:10:45.498Z,19.43
2018-06-19T22:13:13.166Z,19.18
2018-06-19T22:15:40.817Z,18.96
2018-06-19T22:18:08.461Z,18.89
2018-06-19T22:20:36.122Z,19.04
2018-06-19T22:23:03.751Z,19.00
2018-06-19T22:25:31.426Z,18.95
2018-06-19T22:27:59.050Z,18.75
2018-06-19T22:30:26.715Z,18.74
2018-06-19T22:32:54.336Z,18.71
2018-06-19T22:35:21.970Z,18.65
2018-06-19T22:37:49.585Z,18.57
2018-06-19T22:40:17.253Z,18.58
2018-06-19T22:42:44.924Z,18.59
2018-06-19T22:45:12.579Z,18.59
2018-06-19T22:47:40.257Z,18.64
2018-06-19T22:50:07.905Z,18.60
2018-06-19T22:52:35.546Z,18.71
2018-06-19T22:55:03.205Z,18.53
2018-06-19T22:57:30.838Z,18.60
2018-06-19T22:59:58.469Z,18.70
2018-06-19T23:02:26.113Z,18.62
2018-06-19T23:04:53.830Z,18.58
2018-06-19T23:07:21.495Z,18.53
2018-06-19T23:09:50.246Z,18.34
2018-06-19T23:12:17.962Z,18.28
2018-06-19T23:14:45.626Z,18.24
2018-06-19T23:17:13.358Z,18.24
2018-06-19T23:19:41.042Z,18.22
2018-06-19T23:22:08.888Z,18.21
2018-06-19T23:24:36.600Z,18.26
2018-06-19T23:27:04.394Z,18.26
2018-06-19T23:29:32.112Z,18.26
2018-06-19T23:31:59.795Z,18.24
2018-06-19T23:34:27.694Z,18.22
2018-06-19T23:36:55.365Z,18.24
2018-06-19T23:39:23.041Z,18.30
2018-06-19T23:41:50.730Z,18.15
2018-06-19T23:44:18.398Z,18.13
2018-06-19T23:46:46.066Z,18.15
2018-06-19T23:49:13.763Z,18.10
2018-06-19T23:51:41.475Z,18.17
2018-06-19T23:54:09.149Z,18.20
2018-06-19T23:56:36.887Z,18.06
2018-06-19T23:59:04.662Z,17.96
